Terminal Aerodrome Forecast
Issued by NWS Louisville, KY

Home | Current Version | Previous Version | Text Only | Print | Product List | Glossary On
Versions: 1 2 3 4 5 6 7 8 9 10 11 12 13 14
000
FTUS43 KLMK 300300 AAA
TAFBWG
TAF AMD
KBWG 300320Z 3003/3024 21009KT P6SM BKN100
     FM300500 22012KT P6SM -RA BKN040
     FM300900 30005KT P6SM BKN050
     FM301200 33005KT P6SM SCT250=

USA.gov is the U.S. government's official web portal to all federal, state and local government web resources and services.